sensor_id;sensor_type;location;lat;lon;timestamp;pressure;altitude;pressure_sealevel;temperature;humidity
9839;BME280;4958;48.150;11.506;2023-06-14T00:00:50;95113.59;;;19.51;38.61
9839;BME280;4958;48.150;11.506;2023-06-14T00:03:18;95109.75;;;19.37;39.04
9839;BME280;4958;48.150;11.506;2023-06-14T00:05:47;95110.63;;;19.25;39.39
9839;BME280;4958;48.150;11.506;2023-06-14T00:08:15;95108.47;;;19.17;39.73
9839;BME280;4958;48.150;11.506;2023-06-14T00:10:41;95104.88;;;19.02;40.21
9839;BME280;4958;48.150;11.506;2023-06-14T00:13:08;95112.72;;;18.85;41.21
9839;BME280;4958;48.150;11.506;2023-06-14T00:15:34;95109.13;;;18.91;40.35
9839;BME280;4958;48.150;11.506;2023-06-14T00:18:01;95104.16;;;18.89;40.64
9839;BME280;4958;48.150;11.506;2023-06-14T00:20:37;95108.09;;;18.92;40.88
9839;BME280;4958;48.150;11.506;2023-06-14T00:23:04;95109.31;;;18.84;41.40
9839;BME280;4958;48.150;11.506;2023-06-14T00:25:32;95106.56;;;18.74;41.28
9839;BME280;4958;48.150;11.506;2023-06-14T00:28:00;95106.19;;;18.66;41.23
9839;BME280;4958;48.150;11.506;2023-06-14T00:30:27;95101.72;;;18.49;42.28
9839;BME280;4958;48.150;11.506;2023-06-14T00:32:55;95105.09;;;18.50;42.08
9839;BME280;4958;48.150;11.506;2023-06-14T00:35:22;95104.03;;;18.46;42.27
9839;BME280;4958;48.150;11.506;2023-06-14T00:37:49;95097.28;;;18.50;41.64
9839;BME280;4958;48.150;11.506;2023-06-14T00:40:15;95101.16;;;18.47;41.89
9839;BME280;4958;48.150;11.506;2023-06-14T00:42:44;95107.88;;;18.43;41.62
9839;BME280;4958;48.150;11.506;2023-06-14T00:45:10;95104.56;;;18.48;41.96
9839;BME280;4958;48.150;11.506;2023-06-14T00:47:38;95108.34;;;18.40;42.61
9839;BME280;4958;48.150;11.506;2023-06-14T00:50:07;95105.66;;;18.35;41.96
9839;BME280;4958;48.150;11.506;2023-06-14T00:52:34;95102.19;;;18.29;42.23
9839;BME280;4958;48.150;11.506;2023-06-14T00:55:01;95105.81;;;18.28;42.87
9839;BME280;4958;48.150;11.506;2023-06-14T00:57:28;95104.25;;;18.27;42.51
9839;BME280;4958;48.150;11.506;2023-06-14T00:59:56;95107.88;;;18.26;42.54
9839;BME280;4958;48.150;11.506;2023-06-14T01:02:23;95107.16;;;18.31;42.52
9839;BME280;4958;48.150;11.506;2023-06-14T01:04:51;95107.78;;;18.21;42.70
9839;BME280;4958;48.150;11.506;2023-06-14T01:07:24;95113.84;;;18.10;43.63
9839;BME280;4958;48.150;11.506;2023-06-14T01:10:06;95113.34;;;17.97;43.44
9839;BME280;4958;48.150;11.506;2023-06-14T01:12:39;95109.63;;;17.92;43.82
9839;BME280;4958;48.150;11.506;2023-06-14T01:15:12;95114.03;;;17.92;43.58
9839;BME280;4958;48.150;11.506;2023-06-14T01:17:40;95106.09;;;17.99;43.57
9839;BME280;4958;48.150;11.506;2023-06-14T01:20:10;95106.00;;;17.93;43.48
9839;BME280;4958;48.150;11.506;2023-06-14T01:22:49;95107.44;;;18.01;43.56
9839;BME280;4958;48.150;11.506;2023-06-14T01:25:16;95103.25;;;18.00;43.12
9839;BME280;4958;48.150;11.506;2023-06-14T01:27:47;95105.72;;;17.78;44.24
9839;BME280;4958;48.150;11.506;2023-06-14T01:30:14;95100.19;;;17.75;43.66
9839;BME280;4958;48.150;11.506;2023-06-14T01:32:41;95108.38;;;17.67;44.97
9839;BME280;4958;48.150;11.506;2023-06-14T01:35:07;95097.50;;;17.70;44.41
9839;BME280;4958;48.150;11.506;2023-06-14T01:37:34;95104.63;;;17.63;44.74
9839;BME280;4958;48.150;11.506;2023-06-14T01:40:04;95099.31;;;17.57;45.00
9839;BME280;4958;48.150;11.506;2023-06-14T01:42:33;95097.41;;;17.53;44.76
9839;BME280;4958;48.150;11.506;2023-06-14T01:45:00;95099.88;;;17.59;44.71
9839;BME280;4958;48.150;11.506;2023-06-14T01:47:28;95093.53;;;17.55;45.07
9839;BME280;4958;48.150;11.506;2023-06-14T01:49:55;95089.81;;;17.51;44.88
9839;BME280;4958;48.150;11.506;2023-06-14T01:52:22;95092.13;;;17.48;45.10
9839;BME280;4958;48.150;11.506;2023-06-14T01:54:49;95087.72;;;17.37;45.76
9839;BME280;4958;48.150;11.506;2023-06-14T01:57:17;95091.91;;;17.38;45.12
9839;BME280;4958;48.150;11.506;2023-06-14T01:59:43;95083.53;;;17.36;45.64
9839;BME280;4958;48.150;11.506;2023-06-14T02:02:14;95090.88;;;17.39;45.46
9839;BME280;4958;48.150;11.506;2023-06-14T02:04:40;95091.22;;;17.42;45.33
9839;BME280;4958;48.150;11.506;2023-06-14T02:07:13;95094.97;;;17.35;45.70
9839;BME280;4958;48.150;11.506;2023-06-14T02:09:39;95089.31;;;17.38;45.53
9839;BME280;4958;48.150;11.506;2023-06-14T02:12:06;95088.84;;;17.41;45.60
9839;BME280;4958;48.150;11.506;2023-06-14T02:14:34;95089.50;;;17.48;45.12
9839;BME280;4958;48.150;11.506;2023-06-14T02:17:01;95092.34;;;17.46;45.16
9839;BME280;4958;48.150;11.506;2023-06-14T02:19:27;95097.44;;;17.41;45.22
9839;BME280;4958;48.150;11.506;2023-06-14T02:21:54;95088.66;;;17.31;45.84
9839;BME280;4958;48.150;11.506;2023-06-14T02:24:20;95093.53;;;17.27;45.50
9839;BME280;4958;48.150;11.506;2023-06-14T02:26:48;95089.00;;;17.22;46.58
9839;BME280;4958;48.150;11.506;2023-06-14T02:29:15;95087.31;;;17.16;46.37
9839;BME280;4958;48.150;11.506;2023-06-14T02:31:43;95088.00;;;17.23;45.95
9839;BME280;4958;48.150;11.506;2023-06-14T02:34:12;95084.03;;;17.21;45.71
9839;BME280;4958;48.150;11.506;2023-06-14T02:36:38;95087.09;;;17.18;46.15
9839;BME280;4958;48.150;11.506;2023-06-14T02:39:10;95088.47;;;17.09;46.81
9839;BME280;4958;48.150;11.506;2023-06-14T02:41:37;95090.50;;;17.07;46.47
9839;BME280;4958;48.150;11.506;2023-06-14T02:44:04;95100.59;;;16.91;46.59
9839;BME280;4958;48.150;11.506;2023-06-14T02:46:31;95096.19;;;16.92;46.01
9839;BME280;4958;48.150;11.506;2023-06-14T02:48:59;95096.41;;;16.90;46.41
9839;BME280;4958;48.150;11.506;2023-06-14T02:51:25;95101.50;;;16.85;46.58
9839;BME280;4958;48.150;11.506;2023-06-14T02:53:52;95094.38;;;16.92;46.46
9839;BME280;4958;48.150;11.506;2023-06-14T02:56:18;95084.06;;;16.98;46.13
9839;BME280;4958;48.150;11.506;2023-06-14T02:58:45;95090.75;;;17.05;46.26
9839;BME280;4958;48.150;11.506;2023-06-14T03:01:13;95097.97;;;17.03;46.34
9839;BME280;4958;48.150;11.506;2023-06-14T03:03:40;95090.72;;;16.93;46.76
9839;BME280;4958;48.150;11.506;2023-06-14T03:06:08;95096.31;;;16.74;47.21
9839;BME280;4958;48.150;11.506;2023-06-14T03:08:38;95089.75;;;16.71;47.32
9839;BME280;4958;48.150;11.506;2023-06-14T03:11:05;95093.72;;;16.74;46.84
9839;BME280;4958;48.150;11.506;2023-06-14T03:13:33;95099.44;;;16.76;47.19
9839;BME280;4958;48.150;11.506;2023-06-14T03:16:00;95106.53;;;16.57;47.73
9839;BME280;4958;48.150;11.506;2023-06-14T03:18:27;95109.13;;;16.45;48.42
9839;BME280;4958;48.150;11.506;2023-06-14T03:20:54;95105.28;;;16.36;48.80
9839;BME280;4958;48.150;11.506;2023-06-14T03:23:23;95112.63;;;16.28;48.95
9839;BME280;4958;48.150;11.506;2023-06-14T03:25:50;95116.72;;;16.35;48.20
9839;BME280;4958;48.150;11.506;2023-06-14T03:28:17;95118.63;;;16.40;48.58
9839;BME280;4958;48.150;11.506;2023-06-14T03:30:43;95112.66;;;16.51;48.59
9839;BME280;4958;48.150;11.506;2023-06-14T03:33:10;95117.28;;;16.61;48.44
9839;BME280;4958;48.150;11.506;2023-06-14T03:35:37;95121.06;;;16.65;48.27
9839;BME280;4958;48.150;11.506;2023-06-14T03:38:03;95122.84;;;16.64;48.51
9839;BME280;4958;48.150;11.506;2023-06-14T03:40:31;95123.28;;;16.61;48.56
9839;BME280;4958;48.150;11.506;2023-06-14T03:42:58;95111.00;;;16.68;48.38
9839;BME280;4958;48.150;11.506;2023-06-14T03:45:25;95130.94;;;16.56;49.44
9839;BME280;4958;48.150;11.506;2023-06-14T03:47:51;95126.22;;;16.53;49.05
9839;BME280;4958;48.150;11.506;2023-06-14T03:50:18;95121.13;;;16.58;49.39
9839;BME280;4958;48.150;11.506;2023-06-14T03:52:45;95125.81;;;16.68;49.11
9839;BME280;4958;48.150;11.506;2023-06-14T03:55:13;95132.59;;;16.80;48.83
9839;BME280;4958;48.150;11.506;2023-06-14T03:57:42;95139.16;;;16.71;49.54
9839;BME280;4958;48.150;11.506;2023-06-14T04:00:10;95135.19;;;16.69;49.45
9839;BME280;4958;48.150;11.506;2023-06-14T04:02:37;95136.56;;;16.71;49.26
9839;BME280;4958;48.150;11.506;2023-06-14T04:05:04;95144.00;;;16.79;49.01
9839;BME280;4958;48.150;11.506;2023-06-14T04:07:34;95138.25;;;16.89;49.00
9839;BME280;4958;48.150;11.506;2023-06-14T04:10:06;95143.53;;;16.94;49.28
9839;BME280;4958;48.150;11.506;2023-06-14T04:12:32;95143.22;;;17.02;48.83
9839;BME280;4958;48.150;11.506;2023-06-14T04:15:00;95151.00;;;17.02;48.55
9839;BME280;4958;48.150;11.506;2023-06-14T04:17:27;95155.41;;;17.02;49.29
9839;BME280;4958;48.150;11.506;2023-06-14T04:19:53;95163.00;;;17.03;49.90
9839;BME280;4958;48.150;11.506;2023-06-14T04:22:21;95166.97;;;17.06;49.61
9839;BME280;4958;48.150;11.506;2023-06-14T04:24:48;95161.09;;;17.10;49.75
9839;BME280;4958;48.150;11.506;2023-06-14T04:27:14;95173.72;;;17.18;49.46
9839;BME280;4958;48.150;11.506;2023-06-14T04:29:46;95163.91;;;17.20;49.88
9839;BME280;4958;48.150;11.506;2023-06-14T04:32:16;95171.44;;;17.34;49.29
9839;BME280;4958;48.150;11.506;2023-06-14T04:34:43;95173.94;;;17.40;49.32
9839;BME280;4958;48.150;11.506;2023-06-14T04:37:15;95167.16;;;17.51;48.46
9839;BME280;4958;48.150;11.506;2023-06-14T04:39:42;95173.22;;;17.56;48.17
9839;BME280;4958;48.150;11.506;2023-06-14T04:42:09;95169.84;;;17.56;48.38
9839;BME280;4958;48.150;11.506;2023-06-14T04:44:38;95174.91;;;17.63;48.43
9839;BME280;4958;48.150;11.506;2023-06-14T04:47:08;95176.72;;;17.74;48.13
9839;BME280;4958;48.150;11.506;2023-06-14T04:49:40;95176.28;;;17.77;48.54
9839;BME280;4958;48.150;11.506;2023-06-14T04:52:07;95174.19;;;17.90;47.80
9839;BME280;4958;48.150;11.506;2023-06-14T04:54:35;95176.66;;;17.97;48.01
9839;BME280;4958;48.150;11.506;2023-06-14T04:57:03;95174.50;;;18.06;46.70
9839;BME280;4958;48.150;11.506;2023-06-14T04:59:29;95174.78;;;18.09;46.53
9839;BME280;4958;48.150;11.506;2023-06-14T05:01:58;95182.47;;;18.16;45.45
9839;BME280;4958;48.150;11.506;2023-06-14T05:04:26;95185.53;;;18.13;44.57
9839;BME280;4958;48.150;11.506;2023-06-14T05:06:54;95180.66;;;18.16;44.26
9839;BME280;4958;48.150;11.506;2023-06-14T05:09:21;95188.47;;;18.16;43.72
9839;BME280;4958;48.150;11.506;2023-06-14T05:11:47;95183.97;;;18.12;43.52
9839;BME280;4958;48.150;11.506;2023-06-14T05:14:16;95188.72;;;18.15;43.19
9839;BME280;4958;48.150;11.506;2023-06-14T05:16:42;95199.59;;;18.12;43.44
9839;BME280;4958;48.150;11.506;2023-06-14T05:19:09;95186.31;;;18.25;43.61
9839;BME280;4958;48.150;11.506;2023-06-14T05:21:36;95194.34;;;18.23;43.15
9839;BME280;4958;48.150;11.506;2023-06-14T05:24:04;95201.72;;;18.26;43.66
9839;BME280;4958;48.150;11.506;2023-06-14T05:26:31;95205.00;;;18.22;44.45
9839;BME280;4958;48.150;11.506;2023-06-14T05:28:58;95201.03;;;18.19;43.48
9839;BME280;4958;48.150;11.506;2023-06-14T05:31:26;95208.13;;;18.07;43.49
9839;BME280;4958;48.150;11.506;2023-06-14T05:33:54;95203.44;;;18.09;43.82
9839;BME280;4958;48.150;11.506;2023-06-14T05:36:20;95206.50;;;18.18;44.04
9839;BME280;4958;48.150;11.506;2023-06-14T05:38:47;95199.63;;;18.28;43.50
9839;BME280;4958;48.150;11.506;2023-06-14T05:41:29;95203.00;;;18.41;43.20
9839;BME280;4958;48.150;11.506;2023-06-14T05:44:05;95202.38;;;18.50;43.27
9839;BME280;4958;48.150;11.506;2023-06-14T05:46:32;95203.47;;;18.54;43.40
9839;BME280;4958;48.150;11.506;2023-06-14T05:48:59;95205.06;;;18.55;43.02
9839;BME280;4958;48.150;11.506;2023-06-14T05:51:27;95205.84;;;18.56;42.56
9839;BME280;4958;48.150;11.506;2023-06-14T05:53:54;95206.53;;;18.63;43.18
9839;BME280;4958;48.150;11.506;2023-06-14T05:56:21;95205.09;;;18.72;42.81
9839;BME280;4958;48.150;11.506;2023-06-14T05:58:49;95205.84;;;18.56;43.11
9839;BME280;4958;48.150;11.506;2023-06-14T06:01:16;95203.88;;;18.46;43.23
9839;BME280;4958;48.150;11.506;2023-06-14T06:03:42;95205.53;;;18.52;42.93
9839;BME280;4958;48.150;11.506;2023-06-14T06:06:14;95202.41;;;18.67;42.86
9839;BME280;4958;48.150;11.506;2023-06-14T06:08:50;95209.69;;;18.65;42.92
9839;BME280;4958;48.150;11.506;2023-06-14T06:11:17;95210.78;;;18.69;42.83
9839;BME280;4958;48.150;11.506;2023-06-14T06:13:43;95206.91;;;18.72;42.82
9839;BME280;4958;48.150;11.506;2023-06-14T06:16:11;95222.00;;;18.70;43.32
9839;BME280;4958;48.150;11.506;2023-06-14T06:18:38;95222.75;;;18.82;42.84
9839;BME280;4958;48.150;11.506;2023-06-14T06:21:08;95216.34;;;18.89;42.42
9839;BME280;4958;48.150;11.506;2023-06-14T06:23:35;95216.59;;;19.05;42.71
9839;BME280;4958;48.150;11.506;2023-06-14T06:26:01;95220.38;;;19.14;42.69
9839;BME280;4958;48.150;11.506;2023-06-14T06:28:28;95221.63;;;19.28;42.11
9839;BME280;4958;48.150;11.506;2023-06-14T06:30:55;95216.72;;;19.31;41.79
9839;BME280;4958;48.150;11.506;2023-06-14T06:33:32;95225.91;;;19.17;41.53
9839;BME280;4958;48.150;11.506;2023-06-14T06:35:58;95234.06;;;19.21;41.33
9839;BME280;4958;48.150;11.506;2023-06-14T06:38:36;95224.00;;;19.29;41.50
9839;BME280;4958;48.150;11.506;2023-06-14T06:41:02;95228.72;;;19.32;41.48
9839;BME280;4958;48.150;11.506;2023-06-14T06:43:32;95222.31;;;19.40;41.55
9839;BME280;4958;48.150;11.506;2023-06-14T06:46:01;95228.34;;;19.41;41.66
9839;BME280;4958;48.150;11.506;2023-06-14T06:48:41;95234.16;;;19.48;41.34
9839;BME280;4958;48.150;11.506;2023-06-14T06:51:10;95233.31;;;19.59;41.11
9839;BME280;4958;48.150;11.506;2023-06-14T06:53:52;95245.22;;;19.72;41.29
9839;BME280;4958;48.150;11.506;2023-06-14T06:56:18;95236.28;;;19.67;41.26
9839;BME280;4958;48.150;11.506;2023-06-14T06:59:06;95236.44;;;19.78;41.73
9839;BME280;4958;48.150;11.506;2023-06-14T07:01:32;95250.34;;;19.83;41.43
9839;BME280;4958;48.150;11.506;2023-06-14T07:04:14;95237.88;;;19.90;40.83
9839;BME280;4958;48.150;11.506;2023-06-14T07:09:53;95234.31;;;20.18;40.51
9839;BME280;4958;48.150;11.506;2023-06-14T07:21:04;95244.81;;;20.45;40.03
9839;BME280;4958;48.150;11.506;2023-06-14T07:23:48;95250.03;;;20.45;40.33
9839;BME280;4958;48.150;11.506;2023-06-14T07:26:15;95243.72;;;20.41;40.34
9839;BME280;4958;48.150;11.506;2023-06-14T07:28:54;95251.84;;;20.45;40.38
9839;BME280;4958;48.150;11.506;2023-06-14T07:31:31;95255.56;;;20.49;40.52
9839;BME280;4958;48.150;11.506;2023-06-14T07:39:26;95258.31;;;20.64;39.36
9839;BME280;4958;48.150;11.506;2023-06-14T07:41:58;95259.56;;;20.83;39.27
9839;BME280;4958;48.150;11.506;2023-06-14T07:44:38;95257.34;;;20.97;39.28
9839;BME280;4958;48.150;11.506;2023-06-14T07:47:05;95263.13;;;21.04;38.35
9839;BME280;4958;48.150;11.506;2023-06-14T07:49:40;95268.28;;;21.21;38.22
9839;BME280;4958;48.150;11.506;2023-06-14T07:52:21;95265.06;;;21.19;37.93
9839;BME280;4958;48.150;11.506;2023-06-14T07:54:51;95267.09;;;21.38;38.12
9839;BME280;4958;48.150;11.506;2023-06-14T07:57:31;95254.47;;;21.30;37.42
9839;BME280;4958;48.150;11.506;2023-06-14T08:00:06;95263.63;;;21.28;37.66
9839;BME280;4958;48.150;11.506;2023-06-14T08:02:39;95267.97;;;21.49;37.08
9839;BME280;4958;48.150;11.506;2023-06-14T08:05:18;95255.78;;;21.75;36.96
9839;BME280;4958;48.150;11.506;2023-06-14T08:07:53;95251.88;;;21.78;36.46
9839;BME280;4958;48.150;11.506;2023-06-14T08:10:39;95255.06;;;21.85;36.01
9839;BME280;4958;48.150;11.506;2023-06-14T08:13:06;95259.25;;;21.86;35.33
9839;BME280;4958;48.150;11.506;2023-06-14T08:15:34;95249.31;;;21.88;36.04
9839;BME280;4958;48.150;11.506;2023-06-14T08:18:01;95261.25;;;22.11;35.49
9839;BME280;4958;48.150;11.506;2023-06-14T08:20:39;95252.66;;;22.30;35.18
9839;BME280;4958;48.150;11.506;2023-06-14T08:23:06;95258.66;;;22.21;34.44
9839;BME280;4958;48.150;11.506;2023-06-14T08:25:34;95257.41;;;22.44;35.06
9839;BME280;4958;48.150;11.506;2023-06-14T08:28:23;95257.97;;;22.61;34.11
9839;BME280;4958;48.150;11.506;2023-06-14T08:30:54;95265.34;;;22.74;33.73
9839;BME280;4958;48.150;11.506;2023-06-14T08:33:21;95266.69;;;22.82;32.72
9839;BME280;4958;48.150;11.506;2023-06-14T08:35:51;95261.47;;;22.97;33.17
9839;BME280;4958;48.150;11.506;2023-06-14T08:38:45;95269.88;;;22.99;31.17
9839;BME280;4958;48.150;11.506;2023-06-14T08:41:33;95271.97;;;22.97;31.36
9839;BME280;4958;48.150;11.506;2023-06-14T08:44:16;95271.19;;;23.12;32.12
9839;BME280;4958;48.150;11.506;2023-06-14T08:46:49;95274.34;;;23.39;32.78
9839;BME280;4958;48.150;11.506;2023-06-14T08:49:37;95274.06;;;23.20;31.99
9839;BME280;4958;48.150;11.506;2023-06-14T08:52:11;95282.72;;;23.11;31.31
9839;BME280;4958;48.150;11.506;2023-06-14T08:55:00;95275.91;;;23.25;30.65
9839;BME280;4958;48.150;11.506;2023-06-14T08:57:53;95271.69;;;23.49;31.07
9839;BME280;4958;48.150;11.506;2023-06-14T09:00:31;95275.66;;;23.62;30.32
9839;BME280;4958;48.150;11.506;2023-06-14T09:02:59;95273.22;;;23.91;30.44
9839;BME280;4958;48.150;11.506;2023-06-14T09:05:43;95273.47;;;23.99;30.05
9839;BME280;4958;48.150;11.506;2023-06-14T09:08:37;95268.97;;;24.05;29.83
9839;BME280;4958;48.150;11.506;2023-06-14T09:11:06;95270.31;;;23.97;29.58
9839;BME280;4958;48.150;11.506;2023-06-14T09:13:53;95275.28;;;23.99;29.20
9839;BME280;4958;48.150;11.506;2023-06-14T09:17:02;95275.50;;;24.18;30.33
9839;BME280;4958;48.150;11.506;2023-06-14T09:22:31;95280.34;;;24.55;29.39
9839;BME280;4958;48.150;11.506;2023-06-14T09:35:44;95283.28;;;24.48;29.00
9839;BME280;4958;48.150;11.506;2023-06-14T09:38:14;95285.09;;;24.53;29.98
9839;BME280;4958;48.150;11.506;2023-06-14T09:40:40;95276.03;;;24.74;29.58
9839;BME280;4958;48.150;11.506;2023-06-14T09:43:28;95287.53;;;24.88;29.56
9839;BME280;4958;48.150;11.506;2023-06-14T09:46:00;95298.56;;;25.00;29.26
9839;BME280;4958;48.150;11.506;2023-06-14T09:49:01;95289.88;;;24.95;28.83
9839;BME280;4958;48.150;11.506;2023-06-14T09:51:32;95293.41;;;24.75;30.01
9839;BME280;4958;48.150;11.506;2023-06-14T09:54:01;95297.00;;;24.89;30.16
9839;BME280;4958;48.150;11.506;2023-06-14T09:56:35;95302.38;;;24.74;29.37
9839;BME280;4958;48.150;11.506;2023-06-14T09:59:19;95298.78;;;24.55;29.18
9839;BME280;4958;48.150;11.506;2023-06-14T10:01:53;95289.44;;;24.77;29.65
9839;BME280;4958;48.150;11.506;2023-06-14T10:04:58;95292.28;;;24.86;29.13
9839;BME280;4958;48.150;11.506;2023-06-14T10:07:53;95295.31;;;25.08;28.73
9839;BME280;4958;48.150;11.506;2023-06-14T10:10:47;95288.19;;;25.43;28.31
9839;BME280;4958;48.150;11.506;2023-06-14T10:13:41;95286.25;;;25.83;27.30
9839;BME280;4958;48.150;11.506;2023-06-14T10:19:29;95284.53;;;25.73;28.94
9839;BME280;4958;48.150;11.506;2023-06-14T10:22:21;95287.50;;;25.90;29.32
9839;BME280;4958;48.150;11.506;2023-06-14T10:24:55;95276.78;;;26.05;28.56
9839;BME280;4958;48.150;11.506;2023-06-14T10:27:28;95279.44;;;26.29;28.17
9839;BME280;4958;48.150;11.506;2023-06-14T10:30:25;95280.41;;;26.57;28.49
9839;BME280;4958;48.150;11.506;2023-06-14T10:33:14;95277.97;;;26.61;27.53
9839;BME280;4958;48.150;11.506;2023-06-14T10:35:41;95274.53;;;26.60;27.65
9839;BME280;4958;48.150;11.506;2023-06-14T10:38:14;95282.91;;;26.25;28.44
9839;BME280;4958;48.150;11.506;2023-06-14T10:40:44;95279.44;;;25.47;28.85
9839;BME280;4958;48.150;11.506;2023-06-14T10:43:22;95276.66;;;25.39;29.04
9839;BME280;4958;48.150;11.506;2023-06-14T10:46:14;95276.16;;;25.66;29.48
9839;BME280;4958;48.150;11.506;2023-06-14T10:48:41;95284.59;;;25.92;28.68
9839;BME280;4958;48.150;11.506;2023-06-14T10:51:18;95272.38;;;26.20;28.19
9839;BME280;4958;48.150;11.506;2023-06-14T10:53:46;95279.19;;;26.26;27.40
9839;BME280;4958;48.150;11.506;2023-06-14T10:56:30;95280.19;;;26.35;27.78
9839;BME280;4958;48.150;11.506;2023-06-14T10:58:57;95276.66;;;26.39;27.93
9839;BME280;4958;48.150;11.506;2023-06-14T11:01:35;95276.56;;;26.26;28.33
9839;BME280;4958;48.150;11.506;2023-06-14T11:04:10;95278.41;;;26.25;28.32
9839;BME280;4958;48.150;11.506;2023-06-14T11:07:09;95272.13;;;26.64;27.71
9839;BME280;4958;48.150;11.506;2023-06-14T11:09:57;95272.00;;;26.55;27.15
9839;BME280;4958;48.150;11.506;2023-06-14T11:12:33;95272.69;;;26.61;27.51
9839;BME280;4958;48.150;11.506;2023-06-14T11:15:11;95270.28;;;26.64;27.43
9839;BME280;4958;48.150;11.506;2023-06-14T11:17:38;95271.41;;;26.77;27.41
9839;BME280;4958;48.150;11.506;2023-06-14T11:20:08;95258.56;;;26.89;27.49
9839;BME280;4958;48.150;11.506;2023-06-14T11:22:39;95266.28;;;26.67;27.11
9839;BME280;4958;48.150;11.506;2023-06-14T11:25:12;95274.66;;;26.31;27.37
9839;BME280;4958;48.150;11.506;2023-06-14T11:27:41;95279.44;;;26.29;26.40
9839;BME280;4958;48.150;11.506;2023-06-14T11:30:09;95274.47;;;26.46;26.65
9839;BME280;4958;48.150;11.506;2023-06-14T11:32:36;95264.34;;;26.54;25.95
9839;BME280;4958;48.150;11.506;2023-06-14T11:35:13;95275.19;;;26.52;25.81
9839;BME280;4958;48.150;11.506;2023-06-14T11:37:40;95260.84;;;26.77;25.66
9839;BME280;4958;48.150;11.506;2023-06-14T11:40:09;95261.13;;;26.75;25.44
9839;BME280;4958;48.150;11.506;2023-06-14T11:42:37;95262.50;;;26.92;25.37
9839;BME280;4958;48.150;11.506;2023-06-14T11:45:16;95256.00;;;27.03;24.39
9839;BME280;4958;48.150;11.506;2023-06-14T11:47:42;95275.22;;;27.08;24.81
9839;BME280;4958;48.150;11.506;2023-06-14T11:50:09;95255.09;;;27.26;24.83
9839;BME280;4958;48.150;11.506;2023-06-14T11:52:37;95256.19;;;27.58;25.09
9839;BME280;4958;48.150;11.506;2023-06-14T11:55:04;95256.00;;;27.35;23.98
9839;BME280;4958;48.150;11.506;2023-06-14T11:57:40;95256.63;;;27.13;23.88
9839;BME280;4958;48.150;11.506;2023-06-14T12:00:10;95248.56;;;26.67;24.80
9839;BME280;4958;48.150;11.506;2023-06-14T12:02:39;95253.13;;;26.80;24.44
9839;BME280;4958;48.150;11.506;2023-06-14T12:05:08;95247.63;;;27.14;24.56
9839;BME280;4958;48.150;11.506;2023-06-14T12:07:49;95252.28;;;27.04;24.73
9839;BME280;4958;48.150;11.506;2023-06-14T12:10:18;95254.63;;;26.87;24.70
9839;BME280;4958;48.150;11.506;2023-06-14T12:12:45;95255.34;;;26.92;24.73
9839;BME280;4958;48.150;11.506;2023-06-14T12:15:12;95256.44;;;26.91;25.19
9839;BME280;4958;48.150;11.506;2023-06-14T12:17:48;95258.22;;;26.96;24.36
9839;BME280;4958;48.150;11.506;2023-06-14T12:20:16;95256.28;;;27.01;24.31
9839;BME280;4958;48.150;11.506;2023-06-14T12:22:51;95250.66;;;27.08;24.65
9839;BME280;4958;48.150;11.506;2023-06-14T12:25:32;95250.25;;;27.47;24.78
9839;BME280;4958;48.150;11.506;2023-06-14T12:28:04;95249.28;;;27.57;24.53
9839;BME280;4958;48.150;11.506;2023-06-14T12:30:45;95245.53;;;27.76;24.50
9839;BME280;4958;48.150;11.506;2023-06-14T12:33:14;95246.94;;;27.55;24.20
9839;BME280;4958;48.150;11.506;2023-06-14T12:35:46;95245.13;;;27.69;24.80
9839;BME280;4958;48.150;11.506;2023-06-14T12:38:12;95243.28;;;27.70;25.33
9839;BME280;4958;48.150;11.506;2023-06-14T12:40:49;95240.63;;;27.37;25.37
9839;BME280;4958;48.150;11.506;2023-06-14T12:43:16;95250.50;;;26.80;25.47
9839;BME280;4958;48.150;11.506;2023-06-14T12:45:43;95248.00;;;26.70;25.47
9839;BME280;4958;48.150;11.506;2023-06-14T12:48:09;95247.56;;;26.82;25.24
9839;BME280;4958;48.150;11.506;2023-06-14T12:50:55;95252.16;;;26.95;25.54
9839;BME280;4958;48.150;11.506;2023-06-14T12:53:21;95245.88;;;27.24;25.46
9839;BME280;4958;48.150;11.506;2023-06-14T12:55:48;95247.19;;;27.40;24.50
9839;BME280;4958;48.150;11.506;2023-06-14T12:58:15;95248.00;;;27.54;25.10
9839;BME280;4958;48.150;11.506;2023-06-14T13:00:42;95251.31;;;27.65;24.94
9839;BME280;4958;48.150;11.506;2023-06-14T13:03:14;95251.88;;;27.62;24.35
9839;BME280;4958;48.150;11.506;2023-06-14T13:05:42;95254.19;;;27.49;24.67
9839;BME280;4958;48.150;11.506;2023-06-14T13:08:09;95251.66;;;27.58;24.75
9839;BME280;4958;48.150;11.506;2023-06-14T13:10:35;95249.44;;;27.79;24.92
9839;BME280;4958;48.150;11.506;2023-06-14T13:13:08;95254.56;;;28.03;23.80
9839;BME280;4958;48.150;11.506;2023-06-14T13:15:37;95255.81;;;27.92;24.27
9839;BME280;4958;48.150;11.506;2023-06-14T13:18:09;95254.81;;;27.60;24.28
9839;BME280;4958;48.150;11.506;2023-06-14T13:20:43;95255.09;;;27.59;24.58
9839;BME280;4958;48.150;11.506;2023-06-14T13:23:16;95250.06;;;27.43;24.52
9839;BME280;4958;48.150;11.506;2023-06-14T13:25:43;95249.69;;;27.17;24.01
9839;BME280;4958;48.150;11.506;2023-06-14T13:28:10;95258.97;;;27.47;24.72
9839;BME280;4958;48.150;11.506;2023-06-14T13:30:37;95259.59;;;27.58;24.48
9839;BME280;4958;48.150;11.506;2023-06-14T13:33:03;95251.88;;;27.62;24.14
9839;BME280;4958;48.150;11.506;2023-06-14T13:35:31;95250.59;;;27.73;24.31
9839;BME280;4958;48.150;11.506;2023-06-14T13:38:13;95259.31;;;27.73;23.80
9839;BME280;4958;48.150;11.506;2023-06-14T13:40:46;95251.09;;;27.61;23.89
9839;BME280;4958;48.150;11.506;2023-06-14T13:43:29;95245.25;;;27.32;24.78
9839;BME280;4958;48.150;11.506;2023-06-14T13:45:55;95246.44;;;27.07;24.04
9839;BME280;4958;48.150;11.506;2023-06-14T13:48:22;95246.34;;;26.93;24.46
9839;BME280;4958;48.150;11.506;2023-06-14T13:51:02;95240.66;;;26.67;24.55
9839;BME280;4958;48.150;11.506;2023-06-14T13:53:30;95236.44;;;26.85;24.94
9839;BME280;4958;48.150;11.506;2023-06-14T13:56:06;95231.06;;;26.90;24.53
9839;BME280;4958;48.150;11.506;2023-06-14T13:58:37;95232.81;;;27.13;25.36
9839;BME280;4958;48.150;11.506;2023-06-14T14:01:09;95242.00;;;27.35;24.64
9839;BME280;4958;48.150;11.506;2023-06-14T14:03:36;95250.84;;;27.44;24.88
9839;BME280;4958;48.150;11.506;2023-06-14T14:06:04;95246.16;;;27.55;24.58